createdAt,value
2019-02-22T00:02:40.295Z,99.90
2019-02-22T00:06:43.663Z,99.90
2019-02-22T00:10:47.164Z,99.90
2019-02-22T00:14:50.543Z,99.90
2019-02-22T00:18:53.939Z,99.90
2019-02-22T00:22:57.319Z,99.90
2019-02-22T00:27:00.821Z,99.90
2019-02-22T00:31:04.195Z,99.90
2019-02-22T00:35:07.660Z,99.90
2019-02-22T00:39:11.102Z,99.70
2019-02-22T00:43:14.470Z,99.60
2019-02-22T00:47:17.840Z,99.50
2019-02-22T00:51:21.223Z,99.50
2019-02-22T00:55:24.616Z,99.70
2019-02-22T00:59:28.027Z,99.50
2019-02-22T01:03:31.399Z,99.60
2019-02-22T01:07:34.777Z,99.50
2019-02-22T01:11:38.172Z,99.50
2019-02-22T01:15:41.574Z,99.40
2019-02-22T01:19:44.970Z,99.20
2019-02-22T01:23:48.274Z,99.20
2019-02-22T01:27:51.671Z,99.30
2019-02-22T01:31:55.066Z,99.40
2019-02-22T01:35:58.471Z,99.50
2019-02-22T01:40:01.847Z,99.40
2019-02-22T01:44:05.255Z,99.40
2019-02-22T01:48:08.624Z,99.50
2019-02-22T01:52:12.008Z,99.40
2019-02-22T01:56:15.404Z,99.40
2019-02-22T02:00:19.051Z,99.40
2019-02-22T02:04:22.434Z,99.30
2019-02-22T02:08:25.825Z,99.30
2019-02-22T02:12:29.219Z,99.30
2019-02-22T02:16:32.622Z,99.30
2019-02-22T02:20:36.001Z,99.20
2019-02-22T02:24:39.383Z,99.20
2019-02-22T02:28:42.762Z,99.30
2019-02-22T02:32:46.174Z,99.20
2019-02-22T02:36:49.567Z,99.30
2019-02-22T02:40:52.944Z,99.60
2019-02-22T02:44:56.326Z,99.30
2019-02-22T02:48:59.707Z,99.30
2019-02-22T02:53:03.012Z,99.30
2019-02-22T02:57:06.429Z,99.30
2019-02-22T03:01:09.796Z,99.20
2019-02-22T03:05:13.174Z,99.20
2019-02-22T03:09:16.649Z,99.10
2019-02-22T03:13:20.027Z,99.10
2019-02-22T03:17:23.407Z,99.10
2019-02-22T03:21:26.791Z,99.10
2019-02-22T03:25:30.704Z,99.10
2019-02-22T03:29:34.087Z,99.00
2019-02-22T03:33:37.478Z,98.90
2019-02-22T03:37:40.872Z,99.00
2019-02-22T03:41:44.247Z,99.00
2019-02-22T03:45:47.634Z,99.00
2019-02-22T03:49:51.018Z,99.00
2019-02-22T03:53:57.395Z,99.00
2019-02-22T03:57:59.914Z,99.00
2019-02-22T04:02:03.280Z,99.00
2019-02-22T04:06:06.660Z,99.00
2019-02-22T04:10:10.066Z,98.90
2019-02-22T04:14:13.499Z,99.00
2019-02-22T04:18:16.899Z,99.00
2019-02-22T04:22:20.295Z,99.10
2019-02-22T04:26:23.678Z,99.10
2019-02-22T04:30:27.051Z,99.10
2019-02-22T04:34:30.497Z,99.20
2019-02-22T04:38:33.826Z,99.20
2019-02-22T04:42:37.195Z,99.10
2019-02-22T04:46:40.597Z,99.20
2019-02-22T04:50:43.971Z,99.10
2019-02-22T04:54:47.354Z,99.20
2019-02-22T04:58:50.744Z,99.30
2019-02-22T05:02:54.119Z,99.30
2019-02-22T05:06:57.496Z,99.40
2019-02-22T05:11:00.887Z,99.40
2019-02-22T05:15:12.700Z,99.40
2019-02-22T05:19:10.659Z,99.30
2019-02-22T05:23:14.022Z,99.00
2019-02-22T05:27:17.716Z,98.60
2019-02-22T05:31:21.097Z,98.60
2019-02-22T05:35:24.491Z,98.30
2019-02-22T05:39:27.876Z,98.10
2019-02-22T05:43:31.338Z,97.90
2019-02-22T05:47:34.757Z,97.90
2019-02-22T05:51:38.175Z,97.80
2019-02-22T05:55:44.069Z,97.80
2019-02-22T05:59:46.564Z,97.50
2019-02-22T06:03:49.935Z,97.40
2019-02-22T06:07:53.311Z,97.40
2019-02-22T06:11:56.690Z,97.50
2019-02-22T06:16:00.080Z,97.60
2019-02-22T06:20:08.767Z,97.60
2019-02-22T06:24:12.209Z,97.60
2019-02-22T06:28:15.599Z,97.40
2019-02-22T06:32:18.972Z,97.40
2019-02-22T06:36:22.352Z,97.40
2019-02-22T06:40:26.306Z,97.30
2019-02-22T06:44:29.647Z,97.40
2019-02-22T06:48:33.105Z,97.50
2019-02-22T06:52:36.496Z,97.50
2019-02-22T06:56:39.883Z,97.40
2019-02-22T07:00:43.259Z,97.30
2019-02-22T07:04:46.649Z,97.30
2019-02-22T07:08:50.023Z,97.30
2019-02-22T07:12:56.959Z,97.30
2019-02-22T07:17:00.108Z,97.40
2019-02-22T07:21:03.491Z,97.30
2019-02-22T07:25:09.793Z,96.60
2019-02-22T07:29:13.175Z,96.30
2019-02-22T07:33:16.561Z,96.30
2019-02-22T07:37:19.926Z,96.40
2019-02-22T07:41:23.316Z,96.80
2019-02-22T07:45:26.677Z,96.90
2019-02-22T07:49:30.167Z,97.10
2019-02-22T07:53:53.300Z,96.80
2019-02-22T07:57:56.687Z,97.10
2019-02-22T08:02:00.062Z,97.00
2019-02-22T08:06:03.482Z,97.20
2019-02-22T08:10:06.838Z,96.40
2019-02-22T08:14:10.208Z,96.70
2019-02-22T08:18:13.585Z,96.80
2019-02-22T08:22:16.971Z,96.30
2019-02-22T08:26:20.370Z,96.00
2019-02-22T08:30:23.755Z,95.40
2019-02-22T08:34:27.142Z,94.70
2019-02-22T08:38:30.515Z,93.60
2019-02-22T08:42:33.890Z,93.40
2019-02-22T08:46:37.287Z,92.50
2019-02-22T08:50:40.654Z,92.80
2019-02-22T08:54:47.030Z,92.30
2019-02-22T08:58:49.063Z,92.80
2019-02-22T09:02:52.443Z,92.20
2019-02-22T09:06:55.860Z,92.80
2019-02-22T09:11:00.760Z,93.10
2019-02-22T09:15:05.043Z,91.70
2019-02-22T09:19:08.332Z,91.20
2019-02-22T09:23:11.707Z,91.40
2019-02-22T09:27:15.253Z,91.40
2019-02-22T09:31:18.703Z,91.60
2019-02-22T09:35:22.074Z,92.80
2019-02-22T09:39:25.604Z,91.10
2019-02-22T09:43:28.956Z,91.90
2019-02-22T09:47:32.365Z,90.20
2019-02-22T09:51:35.810Z,89.80
2019-02-22T09:55:39.106Z,88.10
2019-02-22T09:59:42.491Z,86.30
2019-02-22T10:03:45.867Z,84.40
2019-02-22T10:07:49.322Z,86.30
2019-02-22T10:11:52.694Z,87.90
2019-02-22T10:15:56.304Z,84.30
2019-02-22T10:20:01.530Z,80.90
2019-02-22T10:24:04.706Z,77.50
2019-02-22T10:28:17.273Z,79.40
2019-02-22T10:32:15.837Z,77.80
2019-02-22T10:36:18.480Z,77.10
2019-02-22T10:40:21.856Z,82.80
2019-02-22T10:44:25.679Z,78.00
2019-02-22T10:48:29.090Z,77.90
2019-02-22T10:52:32.472Z,82.40
2019-02-22T10:56:35.859Z,80.00
2019-02-22T11:00:39.227Z,77.90
2019-02-22T11:04:42.547Z,77.20
2019-02-22T11:08:45.931Z,79.40
2019-02-22T11:12:49.293Z,78.30
2019-02-22T11:16:52.672Z,78.20
2019-02-22T11:20:56.930Z,76.50
2019-02-22T11:25:00.329Z,81.30
2019-02-22T11:29:03.688Z,80.70
2019-02-22T11:33:07.055Z,79.40
2019-02-22T11:37:10.552Z,77.40
2019-02-22T11:41:13.915Z,80.10
2019-02-22T11:45:17.286Z,78.70
2019-02-22T11:49:20.657Z,78.30
2019-02-22T11:53:24.136Z,76.30
2019-02-22T11:57:27.520Z,76.30
2019-02-22T12:01:30.891Z,77.10
2019-02-22T12:05:34.262Z,78.00
2019-02-22T12:09:37.631Z,76.40
2019-02-22T12:13:40.995Z,76.00
2019-02-22T12:17:44.372Z,77.00
2019-02-22T12:21:47.744Z,79.20
2019-02-22T12:25:51.113Z,74.50
2019-02-22T12:29:54.503Z,74.20
2019-02-22T12:33:57.871Z,76.10
2019-02-22T12:38:01.259Z,75.60
2019-02-22T12:42:04.664Z,74.20
2019-02-22T12:46:08.036Z,73.30
2019-02-22T12:50:12.263Z,74.20
2019-02-22T12:54:16.534Z,75.60
2019-02-22T12:58:19.902Z,73.20
2019-02-22T13:02:23.291Z,74.20
2019-02-22T13:06:26.675Z,71.80
2019-02-22T13:10:30.066Z,71.70
2019-02-22T13:14:33.438Z,72.00
2019-02-22T13:18:36.856Z,72.60
2019-02-22T13:22:40.227Z,72.20
2019-02-22T13:26:43.612Z,70.50
2019-02-22T13:30:46.981Z,70.70
2019-02-22T13:34:50.364Z,71.20
2019-02-22T13:38:53.783Z,71.70
2019-02-22T13:42:57.151Z,74.20
2019-02-22T13:47:00.482Z,75.10
2019-02-22T13:51:03.871Z,75.40
2019-02-22T13:55:08.186Z,75.90
2019-02-22T13:59:11.555Z,76.30
2019-02-22T14:03:14.926Z,75.70
2019-02-22T14:07:18.330Z,74.70
2019-02-22T14:11:21.749Z,76.60
2019-02-22T14:15:25.112Z,74.60
2019-02-22T14:19:28.504Z,75.80
2019-02-22T14:23:31.850Z,76.40
2019-02-22T14:27:35.240Z,76.30
2019-02-22T14:31:38.634Z,76.50
2019-02-22T14:35:42.010Z,76.40
2019-02-22T14:39:45.383Z,76.90
2019-02-22T14:43:48.756Z,74.80
2019-02-22T14:47:52.138Z,74.20
2019-02-22T14:51:55.534Z,76.40
2019-02-22T14:55:59.873Z,78.50
2019-02-22T15:00:05.199Z,77.30
2019-02-22T15:04:08.590Z,78.90
2019-02-22T15:08:11.958Z,77.90
2019-02-22T15:12:15.367Z,77.00
2019-02-22T15:16:29.251Z,78.70
2019-02-22T15:20:32.630Z,77.10
2019-02-22T15:24:36.015Z,77.70
2019-02-22T15:28:39.396Z,78.80
2019-02-22T15:32:42.796Z,78.90
2019-02-22T15:36:46.181Z,79.90
2019-02-22T15:40:49.574Z,82.00
2019-02-22T15:44:52.924Z,81.50
2019-02-22T15:48:56.407Z,82.70
2019-02-22T15:52:59.797Z,81.30
2019-02-22T15:57:03.162Z,81.40
2019-02-22T16:01:06.551Z,81.90
2019-02-22T16:05:11.568Z,82.10
2019-02-22T16:09:14.930Z,81.60
2019-02-22T16:13:18.318Z,82.40
2019-02-22T16:17:21.750Z,83.60
2019-02-22T16:21:25.121Z,83.80
2019-02-22T16:25:28.482Z,85.10
2019-02-22T16:29:31.858Z,86.30
2019-02-22T16:33:35.499Z,86.00
2019-02-22T16:37:38.866Z,86.10
2019-02-22T16:41:42.242Z,87.30
2019-02-22T16:45:45.624Z,88.30
2019-02-22T16:49:49.016Z,89.80
2019-02-22T16:53:52.383Z,90.50
2019-02-22T16:57:55.750Z,90.30
2019-02-22T17:01:59.130Z,90.40
2019-02-22T17:06:02.574Z,90.50
2019-02-22T17:10:08.701Z,91.20
2019-02-22T17:14:12.115Z,91.00
2019-02-22T17:18:15.523Z,91.30
2019-02-22T17:22:18.874Z,92.30
2019-02-22T17:26:22.176Z,92.80
2019-02-22T17:30:25.557Z,92.80
2019-02-22T17:34:28.932Z,91.80
2019-02-22T17:38:32.339Z,91.60
2019-02-22T17:42:35.725Z,91.10
2019-02-22T17:46:39.088Z,91.20
2019-02-22T17:50:42.459Z,91.50
2019-02-22T17:54:45.831Z,92.50
2019-02-22T17:58:49.189Z,93.20
2019-02-22T18:02:52.496Z,92.80
2019-02-22T18:06:55.866Z,93.10
2019-02-22T18:10:59.241Z,93.60
2019-02-22T18:15:02.639Z,94.30
2019-02-22T18:19:06.030Z,94.50
2019-02-22T18:23:09.419Z,94.60
2019-02-22T18:27:12.874Z,94.60
2019-02-22T18:31:16.222Z,94.90
2019-02-22T18:35:19.615Z,95.50
2019-02-22T18:39:22.989Z,95.30
2019-02-22T18:43:26.416Z,95.40
2019-02-22T18:47:29.778Z,95.10
2019-02-22T18:51:33.162Z,94.30
2019-02-22T18:55:36.534Z,93.80
2019-02-22T18:59:39.918Z,93.60
2019-02-22T19:03:43.290Z,93.30
2019-02-22T19:07:46.695Z,93.10
2019-02-22T19:11:50.067Z,93.10
2019-02-22T19:15:53.435Z,92.90
2019-02-22T19:19:56.883Z,92.70
2019-02-22T19:24:00.261Z,94.40
2019-02-22T19:28:03.635Z,94.00
2019-02-22T19:32:07.014Z,93.80
2019-02-22T19:36:10.407Z,93.40
2019-02-22T19:40:19.678Z,93.10
2019-02-22T19:44:23.157Z,93.40
2019-02-22T19:48:26.539Z,93.70
2019-02-22T19:52:29.918Z,94.00
2019-02-22T19:56:33.373Z,94.50
2019-02-22T20:00:36.768Z,94.40
2019-02-22T20:04:40.166Z,93.60
2019-02-22T20:08:43.546Z,93.20
2019-02-22T20:12:46.936Z,93.10
2019-02-22T20:16:50.467Z,93.40
2019-02-22T20:20:53.883Z,94.20
2019-02-22T20:24:57.265Z,94.50
2019-02-22T20:29:00.650Z,95.30
2019-02-22T20:33:04.053Z,95.30
2019-02-22T20:37:07.488Z,95.20
2019-02-22T20:41:10.927Z,94.30
2019-02-22T20:45:14.303Z,94.90
2019-02-22T20:49:17.695Z,94.00
2019-02-22T20:53:21.206Z,93.70
2019-02-22T20:57:24.597Z,93.30
2019-02-22T21:01:27.962Z,93.00
2019-02-22T21:05:31.347Z,92.90
2019-02-22T21:09:34.756Z,92.40
2019-02-22T21:13:38.130Z,92.10
2019-02-22T21:17:41.523Z,92.00
2019-02-22T21:21:44.883Z,92.50
2019-02-22T21:25:48.460Z,92.40
2019-02-22T21:29:51.875Z,91.90
2019-02-22T21:33:55.267Z,91.80
2019-02-22T21:37:58.650Z,92.10
2019-02-22T21:42:02.054Z,92.20
2019-02-22T21:46:05.464Z,92.10
2019-02-22T21:50:16.034Z,91.70
2019-02-22T21:54:19.341Z,91.40
2019-02-22T21:58:22.711Z,91.00
2019-02-22T22:02:26.079Z,90.60
2019-02-22T22:06:29.463Z,90.30
2019-02-22T22:10:32.842Z,90.00
2019-02-22T22:14:36.211Z,90.50
2019-02-22T22:18:39.594Z,90.20
2019-02-22T22:22:42.908Z,89.50
2019-02-22T22:26:46.355Z,90.00
2019-02-22T22:30:49.722Z,90.40
2019-02-22T22:34:53.131Z,90.10
2019-02-22T22:38:56.852Z,89.80
2019-02-22T22:43:00.187Z,89.00
2019-02-22T22:47:03.574Z,88.40
2019-02-22T22:51:06.935Z,86.90
2019-02-22T22:55:10.972Z,87.10
2019-02-22T22:59:14.342Z,86.70
2019-02-22T23:03:17.802Z,87.00
2019-02-22T23:07:21.206Z,87.50
2019-02-22T23:11:24.595Z,86.50
2019-02-22T23:15:27.993Z,86.00
2019-02-22T23:19:31.354Z,85.60
2019-02-22T23:23:34.933Z,86.10
2019-02-22T23:27:38.327Z,87.40
2019-02-22T23:31:41.739Z,87.50
2019-02-22T23:35:45.130Z,88.80
2019-02-22T23:39:48.475Z,89.50
2019-02-22T23:43:51.866Z,89.70
2019-02-22T23:47:55.275Z,90.10
2019-02-22T23:51:58.679Z,90.00
2019-02-22T23:56:02.067Z,88.30
